This is the latest recevied weather packets stored in our database for station/object DL9NEE-10. If no packets are shown the sender has not sent any weather packets the latest 10 day(s).
| Time | Temp. | Humidity | Pressure | Rain* | Wind** | Luminosity | Snow |
|---|---|---|---|---|---|---|---|
| 1777477769 | 30.56° C | 22% | 1023.5 hPa | - | - | - | - |
| 1777476869 | 31.11° C | 23% | 1023.5 hPa | - | - | - | - |
| 1777475969 | 31.11° C | 22% | 1023.6 hPa | - | - | - | - |
| 1777475069 | 31.11° C | 22% | 1023.6 hPa | - | - | - | - |
| 1777474169 | 31.67° C | 23% | 1023.5 hPa | - | - | - | - |
| 1777473269 | 31.11° C | 23% | 1023.6 hPa | - | - | - | - |
| 1777472368 | 30.56° C | 23% | 1023.6 hPa | - | - | - | - |
| 1777471468 | 30.56° C | 23% | 1023.6 hPa | - | - | - | - |
| 1777470568 | 30° C | 24% | 1023.6 hPa | - | - | - | - |
| 1777469668 | 28.89° C | 24% | 1023.7 hPa | - | - | - | - |
| 1777468768 | 28.33° C | 25% | 1023.7 hPa | - | - | - | - |
| 1777467868 | 27.78° C | 25% | 1023.7 hPa | - | - | - | - |
| 1777466967 | 27.22° C | 24% | 1023.7 hPa | - | - | - | - |
| 1777466067 | 26.67° C | 24% | 1023.7 hPa | - | - | - | - |
| 1777465166 | 26.67° C | 25% | 1023.7 hPa | - | - | - | - |
| 1777464266 | 26.67° C | 25% | 1023.9 hPa | - | - | - | - |
| 1777463366 | 27.22° C | 24% | 1024 hPa | - | - | - | - |
| 1777462466 | 29.44° C | 23% | 1023.9 hPa | - | - | - | - |
| 1777461566 | 48.89° C | 19% | 1024.3 hPa | - | - | - | - |
| 1777460666 | 23.33° C | 29% | 1024.1 hPa | - | - | - | - |
| 1777459766 | 21.67° C | 30% | 1024.2 hPa | - | - | - | - |
| 1777458866 | 20.56° C | 31% | 1024.3 hPa | - | - | - | - |
| 1777457965 | 19.44° C | 32% | 1024.3 hPa | - | - | - | - |
| 1777457065 | 18.89° C | 33% | 1024.5 hPa | - | - | - | - |
| 1777456165 | 18.33° C | 32% | 1024.4 hPa | - | - | - | - |
* Rain since midnight (hover to see other rain measurements)
** Current wind speed in m/s (hover to see current wind gust speed)